sensor_id;sensor_type;location;lat;lon;timestamp;P1;durP1;ratioP1;P2;durP2;ratioP2
71963;SDS011;59834;52.124;5.422;2022-09-09T00:00:37;0.60;;;0.20;;
71963;SDS011;59834;52.124;5.422;2022-09-09T00:06:03;0.40;;;0.10;;
71963;SDS011;59834;52.124;5.422;2022-09-09T00:15:10;0.57;;;0.20;;
71963;SDS011;59834;52.124;5.422;2022-09-09T00:24:00;1.50;;;0.10;;
71963;SDS011;59834;52.124;5.422;2022-09-09T00:26:51;1.17;;;0.30;;
71963;SDS011;59834;52.124;5.422;2022-09-09T00:29:26;0.63;;;0.20;;
71963;SDS011;59834;52.124;5.422;2022-09-09T00:32:28;2.85;;;0.30;;
71963;SDS011;59834;52.124;5.422;2022-09-09T00:34:59;0.63;;;0.30;;
71963;SDS011;59834;52.124;5.422;2022-09-09T00:37:39;5.13;;;0.40;;
71963;SDS011;59834;52.124;5.422;2022-09-09T00:40:13;0.65;;;0.30;;
71963;SDS011;59834;52.124;5.422;2022-09-09T00:42:48;2.43;;;0.30;;
71963;SDS011;59834;52.124;5.422;2022-09-09T00:45:46;1.10;;;0.32;;
71963;SDS011;59834;52.124;5.422;2022-09-09T00:48:21;2.30;;;0.30;;
71963;SDS011;59834;52.124;5.422;2022-09-09T00:51:09;1.98;;;0.47;;
71963;SDS011;59834;52.124;5.422;2022-09-09T00:56:46;2.53;;;0.60;;
71963;SDS011;59834;52.124;5.422;2022-09-09T00:59:45;3.55;;;0.57;;
71963;SDS011;59834;52.124;5.422;2022-09-09T01:05:54;2.25;;;0.63;;
71963;SDS011;59834;52.124;5.422;2022-09-09T01:14:48;3.20;;;0.80;;
71963;SDS011;59834;52.124;5.422;2022-09-09T01:17:24;2.15;;;0.52;;
71963;SDS011;59834;52.124;5.422;2022-09-09T01:28:53;2.13;;;0.82;;
71963;SDS011;59834;52.124;5.422;2022-09-09T01:31:29;3.03;;;0.90;;
71963;SDS011;59834;52.124;5.422;2022-09-09T01:37:36;2.80;;;0.82;;
71963;SDS011;59834;52.124;5.422;2022-09-09T01:40:02;2.13;;;0.50;;
71963;SDS011;59834;52.124;5.422;2022-09-09T01:43:09;2.92;;;0.90;;
71963;SDS011;59834;52.124;5.422;2022-09-09T01:45:54;2.85;;;0.75;;
71963;SDS011;59834;52.124;5.422;2022-09-09T01:48:29;4.30;;;1.23;;
71963;SDS011;59834;52.124;5.422;2022-09-09T01:54:37;3.37;;;1.43;;
71963;SDS011;59834;52.124;5.422;2022-09-09T02:06:26;2.30;;;1.05;;
71963;SDS011;59834;52.124;5.422;2022-09-09T02:09:19;1.73;;;1.00;;
71963;SDS011;59834;52.124;5.422;2022-09-09T02:12:09;6.38;;;1.70;;
71963;SDS011;59834;52.124;5.422;2022-09-09T02:15:01;5.07;;;1.20;;
71963;SDS011;59834;52.124;5.422;2022-09-09T02:17:50;2.92;;;1.00;;
71963;SDS011;59834;52.124;5.422;2022-09-09T02:20:26;2.97;;;1.10;;
71963;SDS011;59834;52.124;5.422;2022-09-09T02:23:17;2.33;;;1.10;;
71963;SDS011;59834;52.124;5.422;2022-09-09T02:26:10;2.92;;;1.10;;
71963;SDS011;59834;52.124;5.422;2022-09-09T02:29:03;3.28;;;1.00;;
71963;SDS011;59834;52.124;5.422;2022-09-09T02:31:57;2.55;;;1.00;;
71963;SDS011;59834;52.124;5.422;2022-09-09T02:34:47;3.35;;;1.17;;
71963;SDS011;59834;52.124;5.422;2022-09-09T02:37:24;4.20;;;1.13;;
71963;SDS011;59834;52.124;5.422;2022-09-09T02:40:06;1.80;;;0.90;;
71963;SDS011;59834;52.124;5.422;2022-09-09T02:42:41;6.50;;;1.23;;
71963;SDS011;59834;52.124;5.422;2022-09-09T02:45:36;2.80;;;1.10;;
71963;SDS011;59834;52.124;5.422;2022-09-09T02:48:20;1.98;;;1.33;;
71963;SDS011;59834;52.124;5.422;2022-09-09T02:53:43;4.07;;;1.67;;
71963;SDS011;59834;52.124;5.422;2022-09-09T02:56:23;3.75;;;1.15;;
71963;SDS011;59834;52.124;5.422;2022-09-09T02:59:02;3.70;;;1.48;;
71963;SDS011;59834;52.124;5.422;2022-09-09T03:01:30;5.65;;;1.38;;
71963;SDS011;59834;52.124;5.422;2022-09-09T03:04:02;4.13;;;1.73;;
71963;SDS011;59834;52.124;5.422;2022-09-09T03:06:53;5.55;;;1.40;;
71963;SDS011;59834;52.124;5.422;2022-09-09T03:09:43;2.58;;;1.27;;
71963;SDS011;59834;52.124;5.422;2022-09-09T03:12:14;2.50;;;1.25;;
71963;SDS011;59834;52.124;5.422;2022-09-09T03:14:48;5.68;;;1.50;;
71963;SDS011;59834;52.124;5.422;2022-09-09T03:17:17;3.60;;;1.53;;
71963;SDS011;59834;52.124;5.422;2022-09-09T03:19:46;2.05;;;1.58;;
71963;SDS011;59834;52.124;5.422;2022-09-09T03:22:22;2.35;;;1.45;;
71963;SDS011;59834;52.124;5.422;2022-09-09T03:25:04;2.28;;;1.13;;
71963;SDS011;59834;52.124;5.422;2022-09-09T03:27:32;2.65;;;1.70;;
71963;SDS011;59834;52.124;5.422;2022-09-09T03:30:04;3.37;;;1.60;;
71963;SDS011;59834;52.124;5.422;2022-09-09T03:32:35;3.25;;;1.88;;
71963;SDS011;59834;52.124;5.422;2022-09-09T03:37:54;2.38;;;1.48;;
71963;SDS011;59834;52.124;5.422;2022-09-09T03:44:40;2.97;;;1.50;;
71963;SDS011;59834;52.124;5.422;2022-09-09T03:47:11;7.25;;;2.25;;
71963;SDS011;59834;52.124;5.422;2022-09-09T03:49:51;6.68;;;1.65;;
71963;SDS011;59834;52.124;5.422;2022-09-09T03:52:26;4.50;;;1.80;;
71963;SDS011;59834;52.124;5.422;2022-09-09T03:54:55;5.05;;;1.38;;
71963;SDS011;59834;52.124;5.422;2022-09-09T03:57:32;3.83;;;2.27;;
71963;SDS011;59834;52.124;5.422;2022-09-09T04:00:12;3.47;;;1.70;;
71963;SDS011;59834;52.124;5.422;2022-09-09T04:02:41;2.85;;;1.50;;
71963;SDS011;59834;52.124;5.422;2022-09-09T04:05:14;3.53;;;1.70;;
71963;SDS011;59834;52.124;5.422;2022-09-09T04:08:08;6.13;;;1.98;;
71963;SDS011;59834;52.124;5.422;2022-09-09T04:10:44;2.70;;;1.77;;
71963;SDS011;59834;52.124;5.422;2022-09-09T04:16:25;3.30;;;2.13;;
71963;SDS011;59834;52.124;5.422;2022-09-09T04:19:02;2.67;;;2.00;;
71963;SDS011;59834;52.124;5.422;2022-09-09T04:21:36;3.33;;;1.90;;
71963;SDS011;59834;52.124;5.422;2022-09-09T04:24:04;3.33;;;2.10;;
71963;SDS011;59834;52.124;5.422;2022-09-09T04:26:32;4.10;;;2.33;;
71963;SDS011;59834;52.124;5.422;2022-09-09T04:31:59;4.90;;;1.58;;
71963;SDS011;59834;52.124;5.422;2022-09-09T04:34:41;3.80;;;1.73;;
71963;SDS011;59834;52.124;5.422;2022-09-09T04:38:03;3.37;;;1.83;;
71963;SDS011;59834;52.124;5.422;2022-09-09T04:40:36;6.30;;;1.90;;
71963;SDS011;59834;52.124;5.422;2022-09-09T04:43:05;6.95;;;1.70;;
71963;SDS011;59834;52.124;5.422;2022-09-09T04:45:38;4.15;;;1.83;;
71963;SDS011;59834;52.124;5.422;2022-09-09T04:48:21;5.53;;;1.55;;
71963;SDS011;59834;52.124;5.422;2022-09-09T04:54:07;3.72;;;1.67;;
71963;SDS011;59834;52.124;5.422;2022-09-09T04:57:20;2.67;;;1.60;;
71963;SDS011;59834;52.124;5.422;2022-09-09T05:03:27;4.20;;;1.75;;
71963;SDS011;59834;52.124;5.422;2022-09-09T05:05:53;4.23;;;1.30;;
71963;SDS011;59834;52.124;5.422;2022-09-09T05:08:22;5.00;;;1.88;;
71963;SDS011;59834;52.124;5.422;2022-09-09T05:11:12;3.92;;;1.27;;
71963;SDS011;59834;52.124;5.422;2022-09-09T05:14:02;3.38;;;1.30;;
71963;SDS011;59834;52.124;5.422;2022-09-09T05:16:38;3.45;;;1.13;;
71963;SDS011;59834;52.124;5.422;2022-09-09T05:19:12;2.20;;;1.10;;
71963;SDS011;59834;52.124;5.422;2022-09-09T05:21:46;4.40;;;0.77;;
71963;SDS011;59834;52.124;5.422;2022-09-09T05:24:14;3.75;;;1.17;;
71963;SDS011;59834;52.124;5.422;2022-09-09T05:26:41;4.63;;;1.27;;
71963;SDS011;59834;52.124;5.422;2022-09-09T05:29:08;4.68;;;1.25;;
71963;SDS011;59834;52.124;5.422;2022-09-09T05:31:35;7.47;;;1.50;;
71963;SDS011;59834;52.124;5.422;2022-09-09T05:34:08;6.32;;;1.30;;
71963;SDS011;59834;52.124;5.422;2022-09-09T05:36:48;6.60;;;1.30;;
71963;SDS011;59834;52.124;5.422;2022-09-09T05:39:29;3.85;;;1.30;;
71963;SDS011;59834;52.124;5.422;2022-09-09T05:41:55;4.57;;;1.83;;
71963;SDS011;59834;52.124;5.422;2022-09-09T05:44:22;3.33;;;1.10;;
71963;SDS011;59834;52.124;5.422;2022-09-09T05:46:50;8.32;;;1.45;;
71963;SDS011;59834;52.124;5.422;2022-09-09T05:52:23;4.93;;;1.20;;
71963;SDS011;59834;52.124;5.422;2022-09-09T05:54:51;5.00;;;1.33;;
71963;SDS011;59834;52.124;5.422;2022-09-09T05:57:38;4.63;;;1.40;;
71963;SDS011;59834;52.124;5.422;2022-09-09T06:00:20;4.75;;;0.88;;
71963;SDS011;59834;52.124;5.422;2022-09-09T06:02:51;4.28;;;2.42;;
71963;SDS011;59834;52.124;5.422;2022-09-09T06:05:19;4.18;;;1.42;;
71963;SDS011;59834;52.124;5.422;2022-09-09T06:07:53;4.38;;;0.98;;
71963;SDS011;59834;52.124;5.422;2022-09-09T06:10:25;3.67;;;0.93;;
71963;SDS011;59834;52.124;5.422;2022-09-09T06:12:52;5.53;;;0.93;;
71963;SDS011;59834;52.124;5.422;2022-09-09T06:15:23;8.23;;;1.27;;
71963;SDS011;59834;52.124;5.422;2022-09-09T06:17:56;5.88;;;0.95;;
71963;SDS011;59834;52.124;5.422;2022-09-09T06:20:27;2.50;;;0.70;;
71963;SDS011;59834;52.124;5.422;2022-09-09T06:23:04;4.67;;;0.70;;
71963;SDS011;59834;52.124;5.422;2022-09-09T06:25:37;5.68;;;0.90;;
71963;SDS011;59834;52.124;5.422;2022-09-09T06:28:14;9.73;;;1.83;;
71963;SDS011;59834;52.124;5.422;2022-09-09T06:31:09;4.05;;;0.73;;
71963;SDS011;59834;52.124;5.422;2022-09-09T06:33:41;7.38;;;0.82;;
71963;SDS011;59834;52.124;5.422;2022-09-09T06:36:24;4.13;;;0.83;;
71963;SDS011;59834;52.124;5.422;2022-09-09T06:38:58;5.25;;;1.10;;
71963;SDS011;59834;52.124;5.422;2022-09-09T06:41:38;2.97;;;0.60;;
71963;SDS011;59834;52.124;5.422;2022-09-09T06:44:14;4.28;;;1.00;;
71963;SDS011;59834;52.124;5.422;2022-09-09T06:46:43;2.35;;;0.70;;
71963;SDS011;59834;52.124;5.422;2022-09-09T06:49:12;11.43;;;1.17;;
71963;SDS011;59834;52.124;5.422;2022-09-09T06:51:43;6.72;;;0.93;;
71963;SDS011;59834;52.124;5.422;2022-09-09T06:54:13;14.85;;;1.52;;
71963;SDS011;59834;52.124;5.422;2022-09-09T06:57:12;4.25;;;1.90;;
71963;SDS011;59834;52.124;5.422;2022-09-09T07:00:03;5.88;;;1.02;;
71963;SDS011;59834;52.124;5.422;2022-09-09T07:02:38;7.07;;;0.70;;
71963;SDS011;59834;52.124;5.422;2022-09-09T07:05:24;8.48;;;1.40;;
71963;SDS011;59834;52.124;5.422;2022-09-09T07:11:34;4.63;;;1.15;;
71963;SDS011;59834;52.124;5.422;2022-09-09T07:18:00;3.60;;;0.60;;
71963;SDS011;59834;52.124;5.422;2022-09-09T07:20:36;5.78;;;0.60;;
71963;SDS011;59834;52.124;5.422;2022-09-09T07:23:32;3.80;;;0.80;;
71963;SDS011;59834;52.124;5.422;2022-09-09T07:29:20;6.20;;;0.60;;
71963;SDS011;59834;52.124;5.422;2022-09-09T07:31:54;2.87;;;0.70;;
71963;SDS011;59834;52.124;5.422;2022-09-09T07:34:26;6.72;;;0.60;;
71963;SDS011;59834;52.124;5.422;2022-09-09T07:37:22;5.43;;;0.85;;
71963;SDS011;59834;52.124;5.422;2022-09-09T07:39:56;13.32;;;2.55;;
71963;SDS011;59834;52.124;5.422;2022-09-09T07:42:26;3.95;;;0.85;;
71963;SDS011;59834;52.124;5.422;2022-09-09T07:44:54;7.00;;;0.67;;
71963;SDS011;59834;52.124;5.422;2022-09-09T07:47:25;3.47;;;0.82;;
71963;SDS011;59834;52.124;5.422;2022-09-09T07:50:02;5.28;;;0.80;;
71963;SDS011;59834;52.124;5.422;2022-09-09T07:52:31;2.28;;;0.77;;
71963;SDS011;59834;52.124;5.422;2022-09-09T07:55:12;3.47;;;0.60;;
71963;SDS011;59834;52.124;5.422;2022-09-09T07:57:53;6.53;;;0.60;;
71963;SDS011;59834;52.124;5.422;2022-09-09T08:00:23;4.15;;;0.82;;
71963;SDS011;59834;52.124;5.422;2022-09-09T08:10:03;8.35;;;0.88;;
71963;SDS011;59834;52.124;5.422;2022-09-09T08:13:08;6.10;;;0.90;;
71963;SDS011;59834;52.124;5.422;2022-09-09T08:21:59;3.80;;;0.60;;
71963;SDS011;59834;52.124;5.422;2022-09-09T08:24:29;3.85;;;0.70;;
71963;SDS011;59834;52.124;5.422;2022-09-09T08:27:03;9.30;;;0.70;;
71963;SDS011;59834;52.124;5.422;2022-09-09T08:32:25;4.38;;;0.73;;
71963;SDS011;59834;52.124;5.422;2022-09-09T08:35:09;9.18;;;0.75;;
71963;SDS011;59834;52.124;5.422;2022-09-09T08:40:37;4.97;;;0.50;;
71963;SDS011;59834;52.124;5.422;2022-09-09T08:43:11;4.97;;;0.75;;
71963;SDS011;59834;52.124;5.422;2022-09-09T08:46:24;4.78;;;0.68;;
71963;SDS011;59834;52.124;5.422;2022-09-09T08:52:28;7.63;;;1.83;;
71963;SDS011;59834;52.124;5.422;2022-09-09T08:58:19;9.25;;;1.15;;
71963;SDS011;59834;52.124;5.422;2022-09-09T09:01:41;4.63;;;0.88;;
71963;SDS011;59834;52.124;5.422;2022-09-09T09:16:45;8.23;;;0.57;;
71963;SDS011;59834;52.124;5.422;2022-09-09T09:19:56;3.28;;;0.50;;
71963;SDS011;59834;52.124;5.422;2022-09-09T09:22:30;5.78;;;0.45;;
71963;SDS011;59834;52.124;5.422;2022-09-09T09:28:18;5.65;;;0.32;;
71963;SDS011;59834;52.124;5.422;2022-09-09T09:31:30;10.70;;;0.55;;
71963;SDS011;59834;52.124;5.422;2022-09-09T09:34:07;6.05;;;1.70;;
71963;SDS011;59834;52.124;5.422;2022-09-09T09:36:56;6.68;;;0.60;;
71963;SDS011;59834;52.124;5.422;2022-09-09T09:49:54;3.17;;;0.47;;
71963;SDS011;59834;52.124;5.422;2022-09-09T09:52:32;4.97;;;0.45;;
71963;SDS011;59834;52.124;5.422;2022-09-09T09:55:11;3.57;;;0.73;;
71963;SDS011;59834;52.124;5.422;2022-09-09T09:57:42;5.22;;;1.05;;
71963;SDS011;59834;52.124;5.422;2022-09-09T10:00:17;4.28;;;0.43;;
71963;SDS011;59834;52.124;5.422;2022-09-09T10:03:26;5.63;;;0.50;;
71963;SDS011;59834;52.124;5.422;2022-09-09T10:06:55;14.45;;;1.25;;
71963;SDS011;59834;52.124;5.422;2022-09-09T10:09:28;4.87;;;0.50;;
71963;SDS011;59834;52.124;5.422;2022-09-09T10:15:51;6.57;;;0.57;;
71963;SDS011;59834;52.124;5.422;2022-09-09T10:19:13;7.60;;;0.88;;
71963;SDS011;59834;52.124;5.422;2022-09-09T10:25:47;3.47;;;0.40;;
71963;SDS011;59834;52.124;5.422;2022-09-09T10:28:30;5.10;;;0.40;;
71963;SDS011;59834;52.124;5.422;2022-09-09T10:34:15;6.22;;;0.65;;
71963;SDS011;59834;52.124;5.422;2022-09-09T10:36:48;6.38;;;0.70;;
71963;SDS011;59834;52.124;5.422;2022-09-09T10:39:35;5.77;;;1.17;;
71963;SDS011;59834;52.124;5.422;2022-09-09T10:58:03;5.10;;;0.52;;
71963;SDS011;59834;52.124;5.422;2022-09-09T11:01:06;2.03;;;0.40;;
71963;SDS011;59834;52.124;5.422;2022-09-09T11:03:44;5.07;;;0.40;;
71963;SDS011;59834;52.124;5.422;2022-09-09T11:06:27;5.40;;;0.93;;
71963;SDS011;59834;52.124;5.422;2022-09-09T11:09:15;3.67;;;0.60;;
71963;SDS011;59834;52.124;5.422;2022-09-09T11:11:52;2.13;;;0.45;;
71963;SDS011;59834;52.124;5.422;2022-09-09T11:14:45;7.53;;;1.73;;
71963;SDS011;59834;52.124;5.422;2022-09-09T11:17:33;4.05;;;0.52;;
71963;SDS011;59834;52.124;5.422;2022-09-09T11:20:12;4.15;;;0.50;;
71963;SDS011;59834;52.124;5.422;2022-09-09T11:25:31;5.57;;;0.70;;
71963;SDS011;59834;52.124;5.422;2022-09-09T11:34:35;8.55;;;0.57;;
71963;SDS011;59834;52.124;5.422;2022-09-09T11:37:25;2.43;;;0.40;;
71963;SDS011;59834;52.124;5.422;2022-09-09T11:40:08;3.70;;;0.77;;
71963;SDS011;59834;52.124;5.422;2022-09-09T11:43:31;2.88;;;0.52;;
71963;SDS011;59834;52.124;5.422;2022-09-09T11:46:15;7.05;;;1.35;;
71963;SDS011;59834;52.124;5.422;2022-09-09T11:49:04;4.65;;;0.30;;
71963;SDS011;59834;52.124;5.422;2022-09-09T11:51:53;2.53;;;0.70;;
71963;SDS011;59834;52.124;5.422;2022-09-09T11:54:45;2.95;;;1.00;;
71963;SDS011;59834;52.124;5.422;2022-09-09T11:57:35;7.95;;;0.75;;
71963;SDS011;59834;52.124;5.422;2022-09-09T12:00:37;7.70;;;0.70;;
71963;SDS011;59834;52.124;5.422;2022-09-09T12:09:21;3.83;;;0.38;;
71963;SDS011;59834;52.124;5.422;2022-09-09T12:17:17;4.82;;;0.60;;
71963;SDS011;59834;52.124;5.422;2022-09-09T12:20:19;3.07;;;0.47;;
71963;SDS011;59834;52.124;5.422;2022-09-09T12:31:46;3.25;;;0.40;;
71963;SDS011;59834;52.124;5.422;2022-09-09T12:34:46;3.73;;;0.77;;
71963;SDS011;59834;52.124;5.422;2022-09-09T12:37:30;3.78;;;0.80;;
71963;SDS011;59834;52.124;5.422;2022-09-09T12:40:14;3.15;;;0.85;;
71963;SDS011;59834;52.124;5.422;2022-09-09T12:42:46;2.83;;;0.50;;
71963;SDS011;59834;52.124;5.422;2022-09-09T12:45:21;6.00;;;0.88;;
71963;SDS011;59834;52.124;5.422;2022-09-09T12:50:26;3.90;;;0.70;;
71963;SDS011;59834;52.124;5.422;2022-09-09T12:56:01;5.30;;;1.20;;
71963;SDS011;59834;52.124;5.422;2022-09-09T12:58:44;4.30;;;0.75;;
71963;SDS011;59834;52.124;5.422;2022-09-09T13:01:29;4.57;;;0.70;;
71963;SDS011;59834;52.124;5.422;2022-09-09T13:04:16;3.70;;;1.15;;
71963;SDS011;59834;52.124;5.422;2022-09-09T13:07:09;2.72;;;0.50;;
71963;SDS011;59834;52.124;5.422;2022-09-09T13:09:51;7.15;;;0.93;;
71963;SDS011;59834;52.124;5.422;2022-09-09T13:12:21;5.45;;;0.50;;
71963;SDS011;59834;52.124;5.422;2022-09-09T13:14:53;4.60;;;0.77;;
71963;SDS011;59834;52.124;5.422;2022-09-09T13:20:27;4.07;;;0.70;;
71963;SDS011;59834;52.124;5.422;2022-09-09T13:22:55;3.63;;;0.45;;
71963;SDS011;59834;52.124;5.422;2022-09-09T13:25:31;5.03;;;1.00;;
71963;SDS011;59834;52.124;5.422;2022-09-09T13:28:28;10.40;;;1.30;;
71963;SDS011;59834;52.124;5.422;2022-09-09T13:37:37;2.60;;;0.60;;
71963;SDS011;59834;52.124;5.422;2022-09-09T13:40:18;4.97;;;0.63;;
71963;SDS011;59834;52.124;5.422;2022-09-09T13:42:56;4.40;;;1.00;;
71963;SDS011;59834;52.124;5.422;2022-09-09T13:45:51;3.75;;;0.85;;
71963;SDS011;59834;52.124;5.422;2022-09-09T13:48:38;2.33;;;0.35;;
71963;SDS011;59834;52.124;5.422;2022-09-09T13:51:49;5.25;;;0.93;;
71963;SDS011;59834;52.124;5.422;2022-09-09T13:54:36;4.40;;;0.80;;
71963;SDS011;59834;52.124;5.422;2022-09-09T13:57:05;3.47;;;0.60;;
71963;SDS011;59834;52.124;5.422;2022-09-09T14:00:00;3.28;;;0.60;;
71963;SDS011;59834;52.124;5.422;2022-09-09T14:02:33;3.70;;;0.60;;
71963;SDS011;59834;52.124;5.422;2022-09-09T14:05:19;5.15;;;0.70;;
71963;SDS011;59834;52.124;5.422;2022-09-09T14:11:47;3.17;;;0.63;;
71963;SDS011;59834;52.124;5.422;2022-09-09T14:14:17;3.60;;;0.63;;
71963;SDS011;59834;52.124;5.422;2022-09-09T14:16:48;6.18;;;0.57;;
71963;SDS011;59834;52.124;5.422;2022-09-09T14:22:17;2.35;;;0.52;;
71963;SDS011;59834;52.124;5.422;2022-09-09T14:24:53;9.00;;;0.80;;
71963;SDS011;59834;52.124;5.422;2022-09-09T14:27:22;2.58;;;0.85;;
71963;SDS011;59834;52.124;5.422;2022-09-09T14:29:56;7.13;;;0.60;;
71963;SDS011;59834;52.124;5.422;2022-09-09T14:32:51;2.60;;;0.50;;
71963;SDS011;59834;52.124;5.422;2022-09-09T14:35:17;4.65;;;0.45;;
71963;SDS011;59834;52.124;5.422;2022-09-09T14:37:45;5.60;;;0.50;;
71963;SDS011;59834;52.124;5.422;2022-09-09T14:42:55;4.18;;;0.68;;
71963;SDS011;59834;52.124;5.422;2022-09-09T14:45:35;7.22;;;1.02;;
71963;SDS011;59834;52.124;5.422;2022-09-09T14:48:10;4.15;;;0.93;;
71963;SDS011;59834;52.124;5.422;2022-09-09T14:50:40;3.95;;;0.57;;
71963;SDS011;59834;52.124;5.422;2022-09-09T14:53:11;5.93;;;1.00;;
71963;SDS011;59834;52.124;5.422;2022-09-09T14:56:05;8.30;;;0.80;;
71963;SDS011;59834;52.124;5.422;2022-09-09T14:59:19;3.63;;;0.55;;
71963;SDS011;59834;52.124;5.422;2022-09-09T15:01:52;3.35;;;1.05;;
71963;SDS011;59834;52.124;5.422;2022-09-09T15:08:20;6.50;;;0.90;;
71963;SDS011;59834;52.124;5.422;2022-09-09T15:13:54;8.38;;;1.60;;
71963;SDS011;59834;52.124;5.422;2022-09-09T15:16:30;4.07;;;1.13;;
71963;SDS011;59834;52.124;5.422;2022-09-09T15:19:03;2.75;;;0.43;;
71963;SDS011;59834;52.124;5.422;2022-09-09T15:21:34;2.83;;;1.40;;
71963;SDS011;59834;52.124;5.422;2022-09-09T15:24:36;3.20;;;0.20;;
71963;SDS011;59834;52.124;5.422;2022-09-09T15:31:18;3.72;;;0.30;;
71963;SDS011;59834;52.124;5.422;2022-09-09T15:38:33;1.87;;;0.30;;
71963;SDS011;59834;52.124;5.422;2022-09-09T15:42:04;3.17;;;0.50;;
71963;SDS011;59834;52.124;5.422;2022-09-09T15:44:53;1.60;;;0.30;;
71963;SDS011;59834;52.124;5.422;2022-09-09T15:47:54;3.58;;;0.40;;
71963;SDS011;59834;52.124;5.422;2022-09-09T15:50:43;3.38;;;0.20;;
71963;SDS011;59834;52.124;5.422;2022-09-09T15:53:30;4.10;;;0.50;;
71963;SDS011;59834;52.124;5.422;2022-09-09T15:56:39;2.33;;;0.40;;
71963;SDS011;59834;52.124;5.422;2022-09-09T16:03:44;2.25;;;0.40;;
71963;SDS011;59834;52.124;5.422;2022-09-09T16:09:47;2.20;;;0.50;;
71963;SDS011;59834;52.124;5.422;2022-09-09T16:12:39;1.90;;;0.28;;
71963;SDS011;59834;52.124;5.422;2022-09-09T16:15:36;0.85;;;0.30;;
71963;SDS011;59834;52.124;5.422;2022-09-09T16:18:09;1.25;;;0.30;;
71963;SDS011;59834;52.124;5.422;2022-09-09T16:20:39;2.95;;;0.28;;
71963;SDS011;59834;52.124;5.422;2022-09-09T16:23:43;1.47;;;0.40;;
71963;SDS011;59834;52.124;5.422;2022-09-09T16:27:08;2.20;;;0.43;;
71963;SDS011;59834;52.124;5.422;2022-09-09T16:29:50;6.50;;;0.95;;
71963;SDS011;59834;52.124;5.422;2022-09-09T16:32:24;2.28;;;0.43;;
71963;SDS011;59834;52.124;5.422;2022-09-09T16:34:56;2.17;;;0.30;;
71963;SDS011;59834;52.124;5.422;2022-09-09T16:37:36;4.90;;;0.37;;
71963;SDS011;59834;52.124;5.422;2022-09-09T16:40:06;3.20;;;0.65;;
71963;SDS011;59834;52.124;5.422;2022-09-09T16:45:45;3.22;;;0.40;;
71963;SDS011;59834;52.124;5.422;2022-09-09T16:48:25;3.13;;;0.50;;
71963;SDS011;59834;52.124;5.422;2022-09-09T16:55:18;2.60;;;0.55;;
71963;SDS011;59834;52.124;5.422;2022-09-09T16:57:57;3.30;;;0.40;;
71963;SDS011;59834;52.124;5.422;2022-09-09T17:00:26;1.65;;;0.40;;
71963;SDS011;59834;52.124;5.422;2022-09-09T17:02:59;0.85;;;0.38;;
71963;SDS011;59834;52.124;5.422;2022-09-09T17:05:39;4.60;;;0.50;;
71963;SDS011;59834;52.124;5.422;2022-09-09T17:08:33;5.68;;;0.43;;
71963;SDS011;59834;52.124;5.422;2022-09-09T17:11:02;1.48;;;0.35;;
71963;SDS011;59834;52.124;5.422;2022-09-09T17:13:57;4.63;;;0.65;;
71963;SDS011;59834;52.124;5.422;2022-09-09T17:23:08;2.38;;;0.55;;
71963;SDS011;59834;52.124;5.422;2022-09-09T17:25:58;2.50;;;0.60;;
71963;SDS011;59834;52.124;5.422;2022-09-09T17:28:29;2.42;;;0.65;;
71963;SDS011;59834;52.124;5.422;2022-09-09T17:31:10;2.90;;;0.73;;
71963;SDS011;59834;52.124;5.422;2022-09-09T17:34:03;1.40;;;0.50;;
71963;SDS011;59834;52.124;5.422;2022-09-09T17:36:48;1.98;;;0.68;;
71963;SDS011;59834;52.124;5.422;2022-09-09T17:39:20;3.70;;;0.70;;
71963;SDS011;59834;52.124;5.422;2022-09-09T17:42:02;2.67;;;0.90;;
71963;SDS011;59834;52.124;5.422;2022-09-09T17:44:54;1.88;;;0.50;;
71963;SDS011;59834;52.124;5.422;2022-09-09T17:47:36;3.00;;;0.80;;
71963;SDS011;59834;52.124;5.422;2022-09-09T17:50:05;3.20;;;0.90;;
71963;SDS011;59834;52.124;5.422;2022-09-09T17:52:46;6.70;;;1.00;;
71963;SDS011;59834;52.124;5.422;2022-09-09T17:55:12;3.45;;;0.80;;
71963;SDS011;59834;52.124;5.422;2022-09-09T17:57:57;3.45;;;0.70;;
71963;SDS011;59834;52.124;5.422;2022-09-09T18:00:40;2.13;;;0.80;;
71963;SDS011;59834;52.124;5.422;2022-09-09T18:03:10;2.20;;;0.70;;
71963;SDS011;59834;52.124;5.422;2022-09-09T18:05:42;5.63;;;0.73;;
71963;SDS011;59834;52.124;5.422;2022-09-09T18:08:11;2.47;;;0.60;;
71963;SDS011;59834;52.124;5.422;2022-09-09T18:10:56;4.57;;;0.88;;
71963;SDS011;59834;52.124;5.422;2022-09-09T18:19:35;4.18;;;0.57;;
71963;SDS011;59834;52.124;5.422;2022-09-09T18:22:04;3.90;;;0.80;;
71963;SDS011;59834;52.124;5.422;2022-09-09T18:24:43;4.68;;;0.70;;
71963;SDS011;59834;52.124;5.422;2022-09-09T18:27:15;4.03;;;0.80;;
71963;SDS011;59834;52.124;5.422;2022-09-09T18:29:51;4.80;;;0.70;;
71963;SDS011;59834;52.124;5.422;2022-09-09T18:32:25;2.67;;;0.90;;
71963;SDS011;59834;52.124;5.422;2022-09-09T18:34:59;1.83;;;0.52;;
71963;SDS011;59834;52.124;5.422;2022-09-09T18:37:48;2.60;;;0.65;;
71963;SDS011;59834;52.124;5.422;2022-09-09T18:40:21;3.93;;;0.80;;
71963;SDS011;59834;52.124;5.422;2022-09-09T18:42:51;1.80;;;0.73;;
71963;SDS011;59834;52.124;5.422;2022-09-09T18:45:35;2.88;;;0.60;;
71963;SDS011;59834;52.124;5.422;2022-09-09T18:48:08;3.40;;;0.50;;
71963;SDS011;59834;52.124;5.422;2022-09-09T18:50:35;2.85;;;0.60;;
71963;SDS011;59834;52.124;5.422;2022-09-09T18:53:04;4.03;;;0.80;;
71963;SDS011;59834;52.124;5.422;2022-09-09T18:55:32;2.03;;;1.02;;
71963;SDS011;59834;52.124;5.422;2022-09-09T18:57:59;1.48;;;0.73;;
71963;SDS011;59834;52.124;5.422;2022-09-09T19:00:25;4.97;;;1.35;;
71963;SDS011;59834;52.124;5.422;2022-09-09T19:02:56;3.50;;;0.70;;
71963;SDS011;59834;52.124;5.422;2022-09-09T19:05:22;3.00;;;0.60;;
71963;SDS011;59834;52.124;5.422;2022-09-09T19:07:49;4.20;;;1.08;;
71963;SDS011;59834;52.124;5.422;2022-09-09T19:10:19;2.78;;;0.65;;
71963;SDS011;59834;52.124;5.422;2022-09-09T19:12:49;5.00;;;1.10;;
71963;SDS011;59834;52.124;5.422;2022-09-09T19:15:16;2.90;;;0.83;;
71963;SDS011;59834;52.124;5.422;2022-09-09T19:17:43;5.07;;;1.05;;
71963;SDS011;59834;52.124;5.422;2022-09-09T19:20:09;3.58;;;1.30;;
71963;SDS011;59834;52.124;5.422;2022-09-09T19:22:36;1.38;;;0.60;;
71963;SDS011;59834;52.124;5.422;2022-09-09T19:25:04;4.85;;;1.55;;
71963;SDS011;59834;52.124;5.422;2022-09-09T19:27:31;1.67;;;0.83;;
71963;SDS011;59834;52.124;5.422;2022-09-09T19:29:58;2.10;;;0.77;;
71963;SDS011;59834;52.124;5.422;2022-09-09T19:32:24;2.83;;;1.20;;
71963;SDS011;59834;52.124;5.422;2022-09-09T19:35:11;4.47;;;0.93;;
71963;SDS011;59834;52.124;5.422;2022-09-09T19:37:38;3.10;;;0.68;;
71963;SDS011;59834;52.124;5.422;2022-09-09T19:40:04;3.03;;;0.87;;
71963;SDS011;59834;52.124;5.422;2022-09-09T19:42:36;2.30;;;0.80;;
71963;SDS011;59834;52.124;5.422;2022-09-09T19:45:05;4.78;;;1.63;;
71963;SDS011;59834;52.124;5.422;2022-09-09T19:47:34;3.05;;;0.77;;
71963;SDS011;59834;52.124;5.422;2022-09-09T19:50:01;4.03;;;1.45;;
71963;SDS011;59834;52.124;5.422;2022-09-09T19:52:31;5.80;;;1.00;;
71963;SDS011;59834;52.124;5.422;2022-09-09T19:55:01;3.72;;;0.90;;
71963;SDS011;59834;52.124;5.422;2022-09-09T19:57:29;3.53;;;0.90;;
71963;SDS011;59834;52.124;5.422;2022-09-09T20:00:04;2.97;;;1.05;;
71963;SDS011;59834;52.124;5.422;2022-09-09T20:02:37;4.18;;;1.15;;
71963;SDS011;59834;52.124;5.422;2022-09-09T20:05:05;3.93;;;1.30;;
71963;SDS011;59834;52.124;5.422;2022-09-09T20:07:35;3.63;;;1.40;;
71963;SDS011;59834;52.124;5.422;2022-09-09T20:10:05;2.78;;;1.35;;
71963;SDS011;59834;52.124;5.422;2022-09-09T20:12:32;2.85;;;1.77;;
71963;SDS011;59834;52.124;5.422;2022-09-09T20:15:05;3.90;;;1.73;;
71963;SDS011;59834;52.124;5.422;2022-09-09T20:17:32;3.90;;;2.03;;
71963;SDS011;59834;52.124;5.422;2022-09-09T20:19:58;3.90;;;1.90;;
71963;SDS011;59834;52.124;5.422;2022-09-09T20:22:25;3.58;;;2.30;;
71963;SDS011;59834;52.124;5.422;2022-09-09T20:24:51;2.83;;;1.95;;